createdAt,value
2017-10-13T00:00:10.860Z,84.77
2017-10-13T00:02:46.011Z,84.91
2017-10-13T00:05:20.769Z,84.88
2017-10-13T00:07:55.902Z,84.84
2017-10-13T00:10:30.700Z,85.02
2017-10-13T00:13:05.937Z,85.22
2017-10-13T00:15:40.986Z,85.24
2017-10-13T00:18:15.917Z,85.29
2017-10-13T00:20:50.989Z,85.31
2017-10-13T00:23:25.901Z,85.38
2017-10-13T00:26:01.225Z,85.42
2017-10-13T00:28:35.891Z,85.64
2017-10-13T00:31:10.716Z,85.76
2017-10-13T00:33:46.085Z,86.02
2017-10-13T00:36:20.745Z,85.88
2017-10-13T00:38:55.998Z,85.90
2017-10-13T00:41:31.042Z,85.98
2017-10-13T00:44:05.406Z,86.18
2017-10-13T00:46:40.037Z,86.32
2017-10-13T00:49:14.913Z,86.39
2017-10-13T00:51:50.258Z,86.31
2017-10-13T00:54:24.665Z,86.33
2017-10-13T00:56:59.069Z,86.56
2017-10-13T00:59:33.197Z,86.70
2017-10-13T01:02:07.272Z,87.28
2017-10-13T01:04:42.656Z,87.02
2017-10-13T01:07:17.601Z,86.96
2017-10-13T01:09:52.830Z,87.34
2017-10-13T01:12:27.781Z,87.22
2017-10-13T01:15:02.817Z,87.38
2017-10-13T01:17:37.813Z,87.54
2017-10-13T01:20:12.540Z,87.87
2017-10-13T01:22:47.301Z,87.84
2017-10-13T01:25:22.209Z,87.74
2017-10-13T01:27:57.085Z,88.05
2017-10-13T01:30:31.721Z,88.16
2017-10-13T01:33:06.748Z,88.45
2017-10-13T01:35:41.797Z,88.32
2017-10-13T01:38:17.140Z,88.82
2017-10-13T01:40:52.149Z,89.21
2017-10-13T01:43:27.001Z,88.90
2017-10-13T01:46:01.765Z,89.06
2017-10-13T01:48:36.761Z,88.85
2017-10-13T01:51:11.604Z,88.81
2017-10-13T01:53:46.714Z,88.85
2017-10-13T01:56:21.600Z,88.88
2017-10-13T01:58:56.497Z,88.87
2017-10-13T02:01:31.484Z,89.00
2017-10-13T02:04:06.600Z,89.12
2017-10-13T02:06:40.817Z,89.27
2017-10-13T02:09:15.287Z,89.25
2017-10-13T02:11:50.945Z,89.41
2017-10-13T02:14:25.550Z,89.52
2017-10-13T02:17:00.748Z,89.48
2017-10-13T02:19:35.526Z,89.71
2017-10-13T02:22:10.368Z,89.73
2017-10-13T02:24:45.769Z,89.62
2017-10-13T02:27:20.050Z,90.05
2017-10-13T02:29:55.389Z,90.10
2017-10-13T02:32:30.453Z,90.34
2017-10-13T02:35:05.093Z,90.25
2017-10-13T02:37:40.476Z,90.30
2017-10-13T02:40:15.001Z,90.10
2017-10-13T02:42:49.719Z,90.32
2017-10-13T02:45:24.224Z,90.22
2017-10-13T02:47:59.149Z,90.33
2017-10-13T02:50:34.109Z,90.31
2017-10-13T02:53:09.169Z,90.54
2017-10-13T02:55:44.068Z,90.57
2017-10-13T02:58:19.289Z,90.83
2017-10-13T03:00:54.197Z,90.80
2017-10-13T03:03:28.921Z,90.83
2017-10-13T03:06:03.986Z,90.75
2017-10-13T03:08:39.146Z,90.75
2017-10-13T03:11:13.911Z,90.92
2017-10-13T03:13:48.833Z,91.11
2017-10-13T03:16:23.807Z,92.19
2017-10-13T03:18:58.590Z,92.61
2017-10-13T03:21:33.413Z,92.70
2017-10-13T03:24:07.897Z,93.12
2017-10-13T03:26:43.106Z,93.10
2017-10-13T03:29:18.254Z,93.37
2017-10-13T03:31:53.481Z,93.31
2017-10-13T03:34:28.581Z,93.26
2017-10-13T03:37:03.765Z,93.56
2017-10-13T03:39:38.666Z,93.99
2017-10-13T03:42:13.669Z,94.31
2017-10-13T03:44:48.664Z,94.39
2017-10-13T03:47:24.005Z,94.39
2017-10-13T03:49:58.589Z,94.56
2017-10-13T03:52:33.718Z,94.35
2017-10-13T03:55:08.197Z,94.39
2017-10-13T03:57:43.697Z,94.33
2017-10-13T04:00:18.813Z,94.82
2017-10-13T04:02:53.972Z,94.74
2017-10-13T04:05:28.949Z,94.87
2017-10-13T04:08:03.597Z,94.46
2017-10-13T04:10:38.734Z,94.19
2017-10-13T04:13:13.779Z,94.13
2017-10-13T04:15:48.817Z,94.03
2017-10-13T04:18:23.692Z,93.89
2017-10-13T04:20:59.068Z,94.04
2017-10-13T04:23:33.905Z,94.23
2017-10-13T04:26:09.149Z,94.37
2017-10-13T04:28:44.084Z,94.37
2017-10-13T04:31:19.691Z,94.08
2017-10-13T04:33:54.657Z,93.99
2017-10-13T04:36:29.269Z,93.92
2017-10-13T04:39:03.761Z,93.86
2017-10-13T04:41:38.960Z,93.81
2017-10-13T04:44:13.386Z,93.88
2017-10-13T04:46:49.009Z,94.09
2017-10-13T04:49:24.345Z,94.16
2017-10-13T04:51:59.584Z,94.30
2017-10-13T04:54:34.592Z,94.16
2017-10-13T04:57:09.721Z,94.07
2017-10-13T04:59:44.755Z,94.04
2017-10-13T05:02:19.456Z,94.13
2017-10-13T05:04:54.061Z,94.16
2017-10-13T05:07:29.313Z,94.20
2017-10-13T05:10:04.136Z,94.15
2017-10-13T05:12:38.894Z,94.09
2017-10-13T05:15:13.657Z,94.05
2017-10-13T05:17:48.720Z,94.11
2017-10-13T05:20:23.481Z,94.00
2017-10-13T05:22:58.081Z,94.17
2017-10-13T05:25:32.489Z,94.15
2017-10-13T05:28:07.308Z,94.23
2017-10-13T05:30:42.460Z,94.37
2017-10-13T05:33:17.653Z,94.12
2017-10-13T05:35:52.277Z,94.49
2017-10-13T05:38:27.554Z,94.65
2017-10-13T05:41:02.829Z,94.25
2017-10-13T05:43:37.529Z,94.05
2017-10-13T05:46:12.192Z,94.07
2017-10-13T05:48:46.840Z,94.25
2017-10-13T05:51:21.717Z,94.18
2017-10-13T05:53:56.889Z,94.23
2017-10-13T05:56:31.977Z,94.28
2017-10-13T05:59:06.949Z,94.50
2017-10-13T06:01:41.781Z,94.64
2017-10-13T06:04:16.580Z,94.54
2017-10-13T06:06:51.287Z,94.27
2017-10-13T06:09:26.489Z,94.69
2017-10-13T06:12:00.902Z,94.80
2017-10-13T06:14:35.129Z,94.58
2017-10-13T06:17:09.629Z,94.40
2017-10-13T06:19:44.736Z,94.89
2017-10-13T06:22:19.911Z,94.75
2017-10-13T06:24:54.658Z,94.75
2017-10-13T06:27:29.845Z,94.67
2017-10-13T06:30:05.013Z,94.70
2017-10-13T06:32:39.741Z,94.94
2017-10-13T06:35:14.729Z,95.08
2017-10-13T06:37:49.370Z,95.10
2017-10-13T06:40:23.776Z,94.93
2017-10-13T06:42:58.825Z,94.44
2017-10-13T06:45:33.261Z,94.29
2017-10-13T06:48:08.197Z,94.18
2017-10-13T06:50:43.169Z,94.09
2017-10-13T06:53:17.790Z,94.30
2017-10-13T06:55:52.246Z,94.37
2017-10-13T06:58:26.916Z,94.40
2017-10-13T07:01:01.845Z,94.24
2017-10-13T07:03:36.829Z,93.86
2017-10-13T07:06:12.697Z,93.75
2017-10-13T07:08:47.901Z,93.66
2017-10-13T07:11:22.568Z,93.56
2017-10-13T07:13:56.641Z,93.47
2017-10-13T07:16:31.798Z,93.28
2017-10-13T07:19:06.784Z,92.87
2017-10-13T07:21:41.181Z,92.77
2017-10-13T07:24:15.981Z,92.41
2017-10-13T07:26:50.829Z,92.18
2017-10-13T07:29:25.125Z,92.21
2017-10-13T07:32:00.257Z,91.65
2017-10-13T07:34:35.277Z,91.32
2017-10-13T07:37:09.927Z,91.58
2017-10-13T07:39:44.873Z,91.26
2017-10-13T07:42:20.086Z,91.08
2017-10-13T07:44:55.066Z,90.75
2017-10-13T07:47:29.690Z,90.32
2017-10-13T07:50:04.289Z,90.33
2017-10-13T07:52:39.522Z,89.88
2017-10-13T07:55:14.623Z,89.40
2017-10-13T07:57:49.448Z,88.73
2017-10-13T08:00:24.499Z,88.68
2017-10-13T08:02:59.630Z,88.22
2017-10-13T08:05:34.505Z,88.57
2017-10-13T08:08:09.290Z,88.01
2017-10-13T08:10:44.053Z,87.66
2017-10-13T08:13:19.469Z,87.57
2017-10-13T08:15:53.981Z,87.98
2017-10-13T08:18:29.700Z,87.77
2017-10-13T08:21:04.273Z,87.59
2017-10-13T08:23:38.758Z,87.12
2017-10-13T08:26:13.733Z,86.89
2017-10-13T08:28:48.614Z,86.91
2017-10-13T08:31:22.936Z,86.62
2017-10-13T08:33:58.270Z,86.00
2017-10-13T08:36:33.037Z,85.77
2017-10-13T08:39:08.002Z,85.26
2017-10-13T08:41:43.349Z,85.07
2017-10-13T08:44:18.457Z,84.39
2017-10-13T08:46:53.176Z,83.19
2017-10-13T08:49:28.314Z,83.70
2017-10-13T08:52:03.588Z,82.90
2017-10-13T08:54:38.618Z,84.42
2017-10-13T08:57:13.709Z,80.45
2017-10-13T08:59:48.741Z,80.01
2017-10-13T09:02:23.384Z,78.96
2017-10-13T09:04:58.034Z,77.12
2017-10-13T09:12:42.961Z,76.40
2017-10-13T09:15:17.993Z,75.64
2017-10-13T09:17:53.053Z,74.76
2017-10-13T09:20:27.852Z,75.07
2017-10-13T09:23:07.699Z,75.97
2017-10-13T09:25:43.109Z,76.42
2017-10-13T09:28:17.441Z,75.15
2017-10-13T09:30:52.246Z,76.26
2017-10-13T09:33:27.459Z,74.66
2017-10-13T09:36:01.982Z,74.81
2017-10-13T09:38:38.193Z,76.06
2017-10-13T09:41:13.300Z,74.50
2017-10-13T09:43:48.233Z,75.74
2017-10-13T09:46:23.161Z,76.61
2017-10-13T09:48:57.717Z,75.08
2017-10-13T09:51:32.476Z,75.08
2017-10-13T09:54:07.850Z,75.13
2017-10-13T09:56:43.177Z,73.87
2017-10-13T09:59:18.422Z,73.83
2017-10-13T10:01:53.386Z,72.30
2017-10-13T10:04:28.361Z,70.60
2017-10-13T10:07:02.954Z,70.12
2017-10-13T10:09:37.994Z,68.76
2017-10-13T10:12:12.961Z,68.36
2017-10-13T10:14:48.098Z,68.38
2017-10-13T10:17:23.053Z,68.67
2017-10-13T10:19:57.878Z,68.40
2017-10-13T10:22:32.863Z,68.49
2017-10-13T10:25:08.805Z,69.66
2017-10-13T10:27:43.416Z,70.41
2017-10-13T10:30:18.551Z,71.26
2017-10-13T10:32:53.678Z,70.59
2017-10-13T10:35:27.929Z,70.42
2017-10-13T10:38:02.938Z,71.10
2017-10-13T10:40:38.133Z,72.37
2017-10-13T10:43:13.292Z,72.86
2017-10-13T10:45:48.325Z,73.73
2017-10-13T10:48:23.173Z,73.92
2017-10-13T10:50:57.970Z,73.97
2017-10-13T10:53:32.313Z,74.96
2017-10-13T10:56:07.348Z,75.06
2017-10-13T10:58:42.294Z,73.49
2017-10-13T11:01:17.026Z,73.72
2017-10-13T11:03:51.764Z,73.55
2017-10-13T11:06:26.970Z,71.27
2017-10-13T11:09:02.145Z,71.38
2017-10-13T11:11:36.997Z,71.38
2017-10-13T11:14:11.874Z,70.47
2017-10-13T11:16:47.009Z,70.36
2017-10-13T11:19:21.838Z,71.55
2017-10-13T11:21:56.818Z,70.03
2017-10-13T11:24:31.729Z,70.10
2017-10-13T11:27:06.545Z,69.56
2017-10-13T11:29:41.612Z,70.18
2017-10-13T11:32:16.625Z,70.36
2017-10-13T11:34:51.672Z,70.93
2017-10-13T11:37:26.674Z,70.25
2017-10-13T11:40:01.706Z,70.31
2017-10-13T11:42:36.114Z,71.64
2017-10-13T11:45:11.456Z,71.07
2017-10-13T11:47:46.546Z,71.69
2017-10-13T11:50:21.509Z,71.40
2017-10-13T11:52:56.242Z,70.03
2017-10-13T11:55:30.458Z,69.65
2017-10-13T11:58:05.265Z,69.79
2017-10-13T12:00:39.682Z,69.59
2017-10-13T12:03:14.741Z,69.25
2017-10-13T12:05:49.866Z,69.89
2017-10-13T12:08:24.893Z,70.56
2017-10-13T12:10:59.840Z,70.68
2017-10-13T12:13:34.953Z,70.07
2017-10-13T12:16:10.188Z,71.25
2017-10-13T12:18:45.281Z,70.98
2017-10-13T12:21:20.110Z,71.32
2017-10-13T12:23:55.236Z,71.75
2017-10-13T12:26:30.241Z,71.27
2017-10-13T12:29:05.277Z,69.93
2017-10-13T12:31:40.426Z,69.63
2017-10-13T12:34:15.181Z,69.46
2017-10-13T12:36:49.773Z,68.05
2017-10-13T12:39:24.666Z,67.88
2017-10-13T12:41:59.140Z,68.24
2017-10-13T12:44:34.051Z,67.13
2017-10-13T12:47:08.904Z,68.37
2017-10-13T12:49:44.232Z,68.43
2017-10-13T12:52:19.183Z,69.31
2017-10-13T12:54:53.801Z,69.30
2017-10-13T12:57:28.445Z,69.21
2017-10-13T13:00:03.367Z,68.54
2017-10-13T13:02:38.491Z,69.06
2017-10-13T13:05:13.553Z,68.85
2017-10-13T13:07:48.601Z,69.00
2017-10-13T13:10:23.629Z,69.45
2017-10-13T13:12:58.576Z,69.19
2017-10-13T13:15:32.933Z,69.48
2017-10-13T13:18:07.990Z,69.23
2017-10-13T13:20:43.021Z,67.91
2017-10-13T13:23:18.189Z,67.04
2017-10-13T13:25:52.948Z,67.46
2017-10-13T13:28:28.157Z,66.90
2017-10-13T13:31:03.381Z,66.90
2017-10-13T13:33:38.109Z,66.75
2017-10-13T13:36:13.217Z,66.50
2017-10-13T13:38:48.013Z,67.10
2017-10-13T13:41:22.770Z,68.22
2017-10-13T13:43:57.610Z,68.21
2017-10-13T13:46:32.316Z,67.38
2017-10-13T13:49:07.337Z,67.41
2017-10-13T13:51:42.463Z,66.18
2017-10-13T13:54:17.248Z,65.73
2017-10-13T13:56:52.044Z,65.79
2017-10-13T13:59:27.041Z,65.69
2017-10-13T14:02:02.173Z,65.42
2017-10-13T14:04:36.597Z,65.06
2017-10-13T14:07:11.509Z,65.85
2017-10-13T14:09:46.320Z,65.73
2017-10-13T14:12:21.233Z,65.40
2017-10-13T14:14:56.081Z,66.03
2017-10-13T14:17:31.045Z,65.78
2017-10-13T14:20:05.918Z,65.16
2017-10-13T14:22:40.836Z,64.82
2017-10-13T14:25:15.706Z,65.03
2017-10-13T14:27:50.658Z,65.16
2017-10-13T14:30:25.617Z,65.31
2017-10-13T14:33:00.613Z,65.35
2017-10-13T14:35:35.465Z,66.29
2017-10-13T14:38:10.451Z,66.62
2017-10-13T14:40:45.366Z,65.98
2017-10-13T14:43:23.190Z,66.76
2017-10-13T14:45:57.854Z,67.19
2017-10-13T14:48:32.837Z,68.53
2017-10-13T14:51:07.348Z,69.17
2017-10-13T14:53:42.113Z,69.21
2017-10-13T14:56:17.356Z,69.46
2017-10-13T14:58:52.472Z,70.09
2017-10-13T15:01:27.313Z,71.18
2017-10-13T15:04:02.481Z,71.49
2017-10-13T15:06:37.693Z,70.93
2017-10-13T15:09:12.301Z,71.05
2017-10-13T15:11:46.741Z,70.92
2017-10-13T15:14:21.614Z,70.85
2017-10-13T15:16:56.592Z,70.59
2017-10-13T15:19:31.661Z,71.13
2017-10-13T15:22:07.053Z,71.05
2017-10-13T15:24:47.601Z,70.38
2017-10-13T15:27:27.714Z,71.21
2017-10-13T15:30:08.216Z,71.50
2017-10-13T15:32:48.125Z,71.67
2017-10-13T15:35:28.289Z,71.12
2017-10-13T15:38:08.697Z,71.59
2017-10-13T15:40:48.735Z,71.66
2017-10-13T15:43:29.458Z,72.02
2017-10-13T15:46:09.624Z,72.07
2017-10-13T15:48:44.673Z,72.71
2017-10-13T15:51:24.857Z,73.01
2017-10-13T15:54:00.029Z,73.57
2017-10-13T15:56:34.993Z,73.45
2017-10-13T15:59:09.773Z,73.73
2017-10-13T16:01:44.677Z,73.32
2017-10-13T16:04:19.931Z,74.03
2017-10-13T16:06:54.660Z,74.25
2017-10-13T16:09:29.708Z,74.25
2017-10-13T16:12:04.977Z,74.59
2017-10-13T16:14:40.149Z,75.06
2017-10-13T16:17:15.088Z,75.30
2017-10-13T16:19:50.225Z,75.42
2017-10-13T16:22:25.064Z,75.39
2017-10-13T16:25:00.217Z,75.46
2017-10-13T16:27:35.205Z,75.67
2017-10-13T16:30:10.320Z,75.61
2017-10-13T16:32:45.493Z,75.46
2017-10-13T16:35:20.524Z,75.15
2017-10-13T16:37:55.473Z,75.72
2017-10-13T16:40:30.461Z,75.58
2017-10-13T16:43:05.381Z,75.94
2017-10-13T16:45:40.576Z,76.36
2017-10-13T16:48:15.570Z,76.60
2017-10-13T16:50:50.440Z,76.75
2017-10-13T16:53:25.230Z,77.00
2017-10-13T16:55:59.517Z,77.12
2017-10-13T16:58:34.181Z,77.23
2017-10-13T17:01:09.508Z,77.70
2017-10-13T17:03:44.746Z,77.93
2017-10-13T17:06:18.801Z,78.11
2017-10-13T17:08:53.275Z,78.18
2017-10-13T17:11:27.741Z,78.80
2017-10-13T17:14:02.873Z,79.08
2017-10-13T17:16:37.965Z,78.96
2017-10-13T17:19:12.853Z,78.94
2017-10-13T17:21:47.788Z,78.85
2017-10-13T17:24:22.834Z,79.03
2017-10-13T17:26:58.130Z,79.20
2017-10-13T17:29:33.297Z,79.52
2017-10-13T17:32:08.301Z,79.51
2017-10-13T17:34:43.271Z,79.37
2017-10-13T17:37:18.320Z,79.43
2017-10-13T17:39:53.038Z,79.34
2017-10-13T17:42:27.652Z,79.36
2017-10-13T17:45:02.562Z,79.55
2017-10-13T17:47:37.610Z,79.61
2017-10-13T17:50:12.449Z,79.58
2017-10-13T17:52:47.024Z,79.63
2017-10-13T17:55:22.308Z,79.78
2017-10-13T17:57:57.341Z,79.92
2017-10-13T18:00:32.165Z,79.92
2017-10-13T18:03:06.993Z,80.36
2017-10-13T18:05:42.182Z,80.41
2017-10-13T18:08:16.781Z,80.85
2017-10-13T18:10:51.406Z,80.88
2017-10-13T18:13:26.688Z,81.02
2017-10-13T18:16:01.562Z,81.07
2017-10-13T18:18:36.798Z,81.29
2017-10-13T18:21:11.945Z,81.24
2017-10-13T18:23:47.278Z,81.20
2017-10-13T18:26:22.498Z,81.23
2017-10-13T18:28:57.761Z,81.52
2017-10-13T18:31:32.474Z,81.50
2017-10-13T18:34:06.757Z,81.37
2017-10-13T18:36:41.581Z,81.55
2017-10-13T18:39:16.102Z,81.58
2017-10-13T18:41:50.925Z,81.74
2017-10-13T18:44:26.257Z,81.85
2017-10-13T18:47:01.861Z,82.31
2017-10-13T18:49:36.911Z,83.15
2017-10-13T18:52:11.794Z,83.48
2017-10-13T18:54:46.804Z,84.31
2017-10-13T18:57:21.780Z,84.56
2017-10-13T18:59:56.777Z,84.39
2017-10-13T19:02:31.091Z,84.26
2017-10-13T19:05:06.241Z,84.00
2017-10-13T19:07:41.281Z,84.71
2017-10-13T19:10:16.409Z,84.70
2017-10-13T19:12:51.473Z,84.94
2017-10-13T19:15:26.151Z,85.08
2017-10-13T19:18:01.777Z,85.65
2017-10-13T19:20:36.614Z,86.19
2017-10-13T19:23:11.706Z,86.51
2017-10-13T19:25:46.637Z,86.75
2017-10-13T19:28:22.033Z,86.50
2017-10-13T19:30:56.593Z,86.34
2017-10-13T19:33:31.609Z,86.28
2017-10-13T19:36:08.443Z,86.38
2017-10-13T19:38:43.734Z,86.65
2017-10-13T19:41:18.864Z,86.38
2017-10-13T19:43:54.006Z,86.32
2017-10-13T19:46:29.045Z,85.88
2017-10-13T19:49:03.985Z,85.72
2017-10-13T19:51:39.481Z,85.72
2017-10-13T19:54:14.241Z,85.77
2017-10-13T19:56:49.089Z,86.02
2017-10-13T19:59:24.125Z,86.09
2017-10-13T20:01:58.699Z,86.01
2017-10-13T20:04:33.719Z,86.57
2017-10-13T20:07:08.866Z,86.60
2017-10-13T20:09:43.302Z,86.84
2017-10-13T20:12:17.621Z,86.77
2017-10-13T20:14:52.349Z,86.83
2017-10-13T20:17:27.444Z,86.71
2017-10-13T20:20:02.257Z,86.66
2017-10-13T20:22:37.301Z,87.23
2017-10-13T20:25:11.845Z,87.37
2017-10-13T20:27:46.897Z,87.29
2017-10-13T20:30:21.729Z,87.56
2017-10-13T20:32:57.037Z,88.22
2017-10-13T20:35:32.170Z,88.54
2017-10-13T20:38:07.281Z,88.58
2017-10-13T20:40:42.272Z,88.93
2017-10-13T20:43:16.996Z,89.03
2017-10-13T20:45:51.721Z,88.42
2017-10-13T20:48:26.929Z,88.07
2017-10-13T20:51:01.966Z,88.07
2017-10-13T20:53:37.241Z,88.00
2017-10-13T20:56:12.062Z,88.05
2017-10-13T20:58:47.392Z,88.00
2017-10-13T21:01:22.233Z,88.49
2017-10-13T21:03:57.358Z,88.69
2017-10-13T21:06:32.565Z,88.59
2017-10-13T21:09:07.584Z,88.39
2017-10-13T21:11:42.016Z,88.86
2017-10-13T21:14:17.040Z,88.78
2017-10-13T21:16:51.973Z,88.74
2017-10-13T21:19:27.116Z,88.73
2017-10-13T21:22:01.684Z,88.82
2017-10-13T21:24:36.772Z,88.73
2017-10-13T21:27:11.712Z,88.68
2017-10-13T21:29:47.086Z,88.68
2017-10-13T21:32:22.570Z,88.77
2017-10-13T21:34:57.478Z,88.94
2017-10-13T21:37:32.405Z,88.98
2017-10-13T21:40:07.449Z,89.06
2017-10-13T21:42:42.361Z,89.20
2017-10-13T21:45:17.016Z,89.49
2017-10-13T21:47:51.979Z,89.72
2017-10-13T21:50:26.961Z,89.62
2017-10-13T21:53:02.130Z,89.70
2017-10-13T21:55:37.301Z,89.92
2017-10-13T21:58:12.609Z,89.69
2017-10-13T22:00:47.918Z,89.53
2017-10-13T22:03:23.038Z,89.72
2017-10-13T22:05:58.440Z,89.55
2017-10-13T22:08:33.182Z,89.43
2017-10-13T22:11:07.945Z,89.35
2017-10-13T22:13:42.854Z,89.40
2017-10-13T22:16:17.835Z,89.41
2017-10-13T22:18:52.814Z,89.56
2017-10-13T22:21:27.204Z,89.51
2017-10-13T22:24:02.041Z,89.56
2017-10-13T22:26:36.733Z,89.28
2017-10-13T22:29:12.073Z,89.23
2017-10-13T22:31:47.110Z,89.56
2017-10-13T22:34:21.850Z,89.61
2017-10-13T22:36:57.129Z,89.60
2017-10-13T22:39:32.185Z,89.68
2017-10-13T22:42:06.713Z,89.79
2017-10-13T22:44:41.868Z,89.70
2017-10-13T22:47:16.888Z,89.71
2017-10-13T22:49:52.105Z,89.76
2017-10-13T22:52:28.841Z,89.82
2017-10-13T22:55:03.442Z,89.65
2017-10-13T22:57:37.818Z,89.42
2017-10-13T23:00:12.289Z,89.47
2017-10-13T23:02:47.493Z,89.43
2017-10-13T23:05:22.786Z,89.35
2017-10-13T23:07:57.674Z,89.36
2017-10-13T23:10:32.806Z,89.49
2017-10-13T23:13:08.229Z,89.36
2017-10-13T23:15:43.049Z,89.63
2017-10-13T23:18:18.070Z,89.68
2017-10-13T23:20:53.209Z,89.35
2017-10-13T23:23:27.949Z,89.37
2017-10-13T23:26:02.870Z,89.42
2017-10-13T23:28:38.628Z,89.22
2017-10-13T23:31:13.157Z,89.37
2017-10-13T23:33:48.410Z,89.39
2017-10-13T23:36:23.319Z,89.37
2017-10-13T23:38:58.572Z,89.35
2017-10-13T23:41:34.208Z,89.65
2017-10-13T23:44:09.421Z,89.67
2017-10-13T23:46:44.338Z,89.52
2017-10-13T23:49:19.294Z,89.42
2017-10-13T23:51:54.221Z,89.33
2017-10-13T23:54:29.330Z,89.20
2017-10-13T23:57:04.249Z,88.89
2017-10-13T23:59:38.804Z,89.06
